sensor_id;sensor_type;location;lat;lon;timestamp;pressure;altitude;pressure_sealevel;temperature;humidity
79142;BME280;68550;-26.480;29.234;2023-07-29T00:00:04;84540.50;;;20.16;31.73
79142;BME280;68550;-26.480;29.234;2023-07-29T00:02:29;84534.92;;;19.93;32.18
79142;BME280;68550;-26.480;29.234;2023-07-29T00:04:54;84531.91;;;20.14;32.47
79142;BME280;68550;-26.480;29.234;2023-07-29T00:07:20;84526.27;;;19.88;32.50
79142;BME280;68550;-26.480;29.234;2023-07-29T00:09:45;84522.12;;;20.15;32.42
79142;BME280;68550;-26.480;29.234;2023-07-29T00:12:11;84519.76;;;19.89;32.38
79142;BME280;68550;-26.480;29.234;2023-07-29T00:14:36;84517.13;;;20.10;32.15
79142;BME280;68550;-26.480;29.234;2023-07-29T00:17:01;84513.42;;;19.87;32.30
79142;BME280;68550;-26.480;29.234;2023-07-29T00:19:30;84512.37;;;20.06;32.47
79142;BME280;68550;-26.480;29.234;2023-07-29T00:21:52;84512.98;;;20.06;32.49
79142;BME280;68550;-26.480;29.234;2023-07-29T00:24:17;84514.39;;;20.04;32.47
79142;BME280;68550;-26.480;29.234;2023-07-29T00:26:44;84512.43;;;20.10;32.36
79142;BME280;68550;-26.480;29.234;2023-07-29T00:29:09;84509.51;;;20.05;31.93
79142;BME280;68550;-26.480;29.234;2023-07-29T00:31:34;84504.85;;;20.05;31.87
79142;BME280;68550;-26.480;29.234;2023-07-29T00:34:00;84497.71;;;19.98;32.09
79142;BME280;68550;-26.480;29.234;2023-07-29T00:36:25;84499.55;;;19.76;32.07
79142;BME280;68550;-26.480;29.234;2023-07-29T00:38:50;84501.02;;;20.01;31.93
79142;BME280;68550;-26.480;29.234;2023-07-29T00:41:15;84503.38;;;20.00;31.85
79142;BME280;68550;-26.480;29.234;2023-07-29T00:43:41;84507.40;;;20.26;31.94
79142;BME280;68550;-26.480;29.234;2023-07-29T00:46:08;84504.91;;;19.84;32.04
79142;BME280;68550;-26.480;29.234;2023-07-29T00:48:33;84506.20;;;20.32;32.06
79142;BME280;68550;-26.480;29.234;2023-07-29T00:50:58;84503.84;;;20.09;32.23
79142;BME280;68550;-26.480;29.234;2023-07-29T00:53:23;84503.14;;;20.32;32.07
79142;BME280;68550;-26.480;29.234;2023-07-29T00:55:49;84501.66;;;20.01;32.16
79142;BME280;68550;-26.480;29.234;2023-07-29T00:58:15;84500.52;;;20.01;32.26
79142;BME280;68550;-26.480;29.234;2023-07-29T01:00:42;84499.73;;;19.65;32.18
79142;BME280;68550;-26.480;29.234;2023-07-29T01:03:05;84497.17;;;19.95;32.32
79142;BME280;68550;-26.480;29.234;2023-07-29T01:05:36;84488.91;;;19.71;32.16
79142;BME280;68550;-26.480;29.234;2023-07-29T01:08:03;84481.29;;;19.92;32.28
79142;BME280;68550;-26.480;29.234;2023-07-29T01:10:31;84480.06;;;19.98;32.18
79142;BME280;68550;-26.480;29.234;2023-07-29T01:12:51;84478.65;;;19.95;32.22
79142;BME280;68550;-26.480;29.234;2023-07-29T01:15:16;84478.12;;;19.93;32.25
79142;BME280;68550;-26.480;29.234;2023-07-29T01:17:43;84480.55;;;19.83;32.11
79142;BME280;68550;-26.480;29.234;2023-07-29T01:20:09;84480.43;;;20.11;31.87
79142;BME280;68550;-26.480;29.234;2023-07-29T01:22:29;84476.95;;;20.16;31.73
79142;BME280;68550;-26.480;29.234;2023-07-29T01:24:56;84473.07;;;20.10;31.72
79142;BME280;68550;-26.480;29.234;2023-07-29T01:27:20;84474.99;;;20.06;31.72
79142;BME280;68550;-26.480;29.234;2023-07-29T01:29:46;84471.77;;;20.13;31.58
79142;BME280;68550;-26.480;29.234;2023-07-29T01:32:14;84470.88;;;20.16;31.59
79142;BME280;68550;-26.480;29.234;2023-07-29T01:34:43;84471.09;;;19.83;31.68
79142;BME280;68550;-26.480;29.234;2023-07-29T01:37:07;84472.86;;;20.07;31.56
79142;BME280;68550;-26.480;29.234;2023-07-29T01:39:30;84472.72;;;19.83;31.62
79142;BME280;68550;-26.480;29.234;2023-07-29T01:41:53;84473.05;;;19.55;31.70
79142;BME280;68550;-26.480;29.234;2023-07-29T01:44:19;84473.80;;;20.08;31.59
79142;BME280;68550;-26.480;29.234;2023-07-29T01:46:45;84474.07;;;19.64;31.55
79142;BME280;68550;-26.480;29.234;2023-07-29T01:49:12;84477.80;;;20.08;31.62
79142;BME280;68550;-26.480;29.234;2023-07-29T01:51:35;84475.90;;;19.82;31.67
79142;BME280;68550;-26.480;29.234;2023-07-29T01:54:00;84471.74;;;19.76;31.70
79142;BME280;68550;-26.480;29.234;2023-07-29T01:56:25;84468.77;;;19.71;31.63
79142;BME280;68550;-26.480;29.234;2023-07-29T01:58:50;84469.18;;;19.97;31.69
79142;BME280;68550;-26.480;29.234;2023-07-29T02:01:16;84471.92;;;19.67;31.70
79142;BME280;68550;-26.480;29.234;2023-07-29T02:03:40;84471.23;;;19.85;31.73
79142;BME280;68550;-26.480;29.234;2023-07-29T02:06:06;84464.85;;;19.89;31.60
79142;BME280;68550;-26.480;29.234;2023-07-29T02:08:32;84462.61;;;20.01;31.42
79142;BME280;68550;-26.480;29.234;2023-07-29T02:10:57;84456.42;;;19.79;31.35
79142;BME280;68550;-26.480;29.234;2023-07-29T02:13:25;84455.89;;;19.80;31.45
79142;BME280;68550;-26.480;29.234;2023-07-29T02:15:48;84455.65;;;20.03;31.70
79142;BME280;68550;-26.480;29.234;2023-07-29T02:18:14;84456.91;;;20.03;31.67
79142;BME280;68550;-26.480;29.234;2023-07-29T02:20:41;84451.07;;;19.59;31.70
79142;BME280;68550;-26.480;29.234;2023-07-29T02:23:05;84449.41;;;19.75;31.72
79142;BME280;68550;-26.480;29.234;2023-07-29T02:25:31;84448.22;;;20.02;31.79
79142;BME280;68550;-26.480;29.234;2023-07-29T02:27:57;84445.47;;;20.00;31.71
79142;BME280;68550;-26.480;29.234;2023-07-29T02:30:22;84439.26;;;19.60;31.79
79142;BME280;68550;-26.480;29.234;2023-07-29T02:32:47;84437.74;;;19.81;31.71
79142;BME280;68550;-26.480;29.234;2023-07-29T02:35:13;84438.68;;;19.94;31.81
79142;BME280;68550;-26.480;29.234;2023-07-29T02:37:38;84441.32;;;19.66;31.82
79142;BME280;68550;-26.480;29.234;2023-07-29T02:40:05;84442.03;;;19.85;31.87
79142;BME280;68550;-26.480;29.234;2023-07-29T02:42:29;84442.82;;;19.82;31.60
79142;BME280;68550;-26.480;29.234;2023-07-29T02:44:54;84440.82;;;19.90;31.36
79142;BME280;68550;-26.480;29.234;2023-07-29T02:47:20;84439.85;;;19.63;31.30
79142;BME280;68550;-26.480;29.234;2023-07-29T02:49:45;84441.31;;;19.77;31.41
79142;BME280;68550;-26.480;29.234;2023-07-29T02:52:11;84442.17;;;19.59;31.24
79142;BME280;68550;-26.480;29.234;2023-07-29T02:54:39;84441.21;;;19.92;31.08
79142;BME280;68550;-26.480;29.234;2023-07-29T02:57:02;84437.25;;;19.93;31.07
79142;BME280;68550;-26.480;29.234;2023-07-29T02:59:27;84434.53;;;19.89;31.01
79142;BME280;68550;-26.480;29.234;2023-07-29T03:01:52;84429.37;;;19.66;31.37
79142;BME280;68550;-26.480;29.234;2023-07-29T03:06:12;84439.13;;;18.05;34.10
79142;BME280;68550;-26.480;29.234;2023-07-29T03:08:33;84439.45;;;18.67;33.22
79142;BME280;68550;-26.480;29.234;2023-07-29T03:11:04;84438.23;;;18.87;32.64
79142;BME280;68550;-26.480;29.234;2023-07-29T03:16:13;84425.64;;;19.42;31.97
79142;BME280;68550;-26.480;29.234;2023-07-29T03:18:14;84421.50;;;19.54;32.03
79142;BME280;68550;-26.480;29.234;2023-07-29T03:20:40;84419.67;;;19.60;32.04
79142;BME280;68550;-26.480;29.234;2023-07-29T03:23:05;84425.17;;;19.67;31.79
79142;BME280;68550;-26.480;29.234;2023-07-29T03:25:33;84429.96;;;19.66;31.76
79142;BME280;68550;-26.480;29.234;2023-07-29T03:35:13;84438.51;;;19.79;31.21
79142;BME280;68550;-26.480;29.234;2023-07-29T03:40:04;84436.75;;;19.71;31.23
79142;BME280;68550;-26.480;29.234;2023-07-29T03:42:29;84438.24;;;19.62;31.29
79142;BME280;68550;-26.480;29.234;2023-07-29T03:44:54;84439.67;;;19.29;31.31
79142;BME280;68550;-26.480;29.234;2023-07-29T03:47:20;84437.92;;;19.33;31.39
79142;BME280;68550;-26.480;29.234;2023-07-29T03:49:52;84436.26;;;19.59;31.62
79142;BME280;68550;-26.480;29.234;2023-07-29T03:52:10;84437.61;;;19.43;31.69
79142;BME280;68550;-26.480;29.234;2023-07-29T03:54:40;84441.83;;;19.51;31.75
79142;BME280;68550;-26.480;29.234;2023-07-29T03:57:00;84439.07;;;19.50;31.61
79142;BME280;68550;-26.480;29.234;2023-07-29T04:06:42;84442.79;;;19.63;31.66
79142;BME280;68550;-26.480;29.234;2023-07-29T04:16:23;84440.94;;;19.35;31.34
79142;BME280;68550;-26.480;29.234;2023-07-29T04:18:48;84447.01;;;19.59;31.25
79142;BME280;68550;-26.480;29.234;2023-07-29T04:21:14;84445.53;;;19.49;31.30
79142;BME280;68550;-26.480;29.234;2023-07-29T04:23:39;84449.64;;;19.47;31.27
79142;BME280;68550;-26.480;29.234;2023-07-29T04:28:30;84451.26;;;19.07;31.47
79142;BME280;68550;-26.480;29.234;2023-07-29T04:30:55;84451.18;;;19.31;31.62
79142;BME280;68550;-26.480;29.234;2023-07-29T04:33:26;84451.69;;;19.39;31.65
79142;BME280;68550;-26.480;29.234;2023-07-29T04:35:46;84454.43;;;19.40;31.69
79142;BME280;68550;-26.480;29.234;2023-07-29T04:40:36;84458.25;;;19.33;31.76
79142;BME280;68550;-26.480;29.234;2023-07-29T04:55:21;84452.49;;;19.21;31.60
79142;BME280;68550;-26.480;29.234;2023-07-29T04:57:34;84451.89;;;19.35;31.61
79142;BME280;68550;-26.480;29.234;2023-07-29T04:59:59;84452.07;;;19.33;31.48
79142;BME280;68550;-26.480;29.234;2023-07-29T05:02:25;84455.62;;;19.30;31.42
79142;BME280;68550;-26.480;29.234;2023-07-29T05:06:44;84459.06;;;18.58;32.16
79142;BME280;68550;-26.480;29.234;2023-07-29T05:09:14;84460.03;;;18.94;31.85
79142;BME280;68550;-26.480;29.234;2023-07-29T05:11:33;84455.28;;;19.03;31.72
79142;BME280;68550;-26.480;29.234;2023-07-29T05:13:59;84453.09;;;19.18;31.76
79142;BME280;68550;-26.480;29.234;2023-07-29T05:16:24;84449.47;;;19.35;31.69
79142;BME280;68550;-26.480;29.234;2023-07-29T05:18:53;84450.62;;;19.22;31.66
79142;BME280;68550;-26.480;29.234;2023-07-29T05:21:17;84447.71;;;19.09;31.74
79142;BME280;68550;-26.480;29.234;2023-07-29T05:23:41;84448.70;;;19.51;31.64
79142;BME280;68550;-26.480;29.234;2023-07-29T05:26:08;84451.16;;;19.17;31.67
79142;BME280;68550;-26.480;29.234;2023-07-29T05:28:32;84448.07;;;19.40;31.68
79142;BME280;68550;-26.480;29.234;2023-07-29T05:31:00;84450.90;;;19.16;31.21
79142;BME280;68550;-26.480;29.234;2023-07-29T05:33:22;84452.08;;;19.23;31.70
79142;BME280;68550;-26.480;29.234;2023-07-29T05:35:47;84450.66;;;19.26;31.77
79142;BME280;68550;-26.480;29.234;2023-07-29T05:38:13;84452.51;;;19.11;32.14
79142;BME280;68550;-26.480;29.234;2023-07-29T05:40:38;84450.52;;;19.41;32.10
79142;BME280;68550;-26.480;29.234;2023-07-29T05:43:04;84446.02;;;19.12;32.13
79142;BME280;68550;-26.480;29.234;2023-07-29T05:45:29;84442.32;;;19.42;31.84
79142;BME280;68550;-26.480;29.234;2023-07-29T05:47:54;84443.56;;;19.43;31.90
79142;BME280;68550;-26.480;29.234;2023-07-29T05:50:20;84447.87;;;19.45;31.99
79142;BME280;68550;-26.480;29.234;2023-07-29T05:52:45;84446.71;;;19.44;31.96
79142;BME280;68550;-26.480;29.234;2023-07-29T05:55:14;84453.66;;;19.34;32.19
79142;BME280;68550;-26.480;29.234;2023-07-29T05:57:36;84453.02;;;19.46;32.19
79142;BME280;68550;-26.480;29.234;2023-07-29T06:00:02;84450.93;;;19.33;32.30
79142;BME280;68550;-26.480;29.234;2023-07-29T06:02:26;84446.39;;;19.46;32.34
79142;BME280;68550;-26.480;29.234;2023-07-29T06:04:53;84440.48;;;19.15;32.61
79142;BME280;68550;-26.480;29.234;2023-07-29T06:07:19;84439.61;;;18.68;32.34
79142;BME280;68550;-26.480;29.234;2023-07-29T06:09:45;84441.68;;;18.95;32.96
79142;BME280;68550;-26.480;29.234;2023-07-29T06:12:09;84439.89;;;19.33;32.56
79142;BME280;68550;-26.480;29.234;2023-07-29T06:14:34;84437.70;;;19.37;32.53
79142;BME280;68550;-26.480;29.234;2023-07-29T06:16:59;84435.00;;;19.57;32.29
79142;BME280;68550;-26.480;29.234;2023-07-29T06:19:25;84438.95;;;19.60;32.24
79142;BME280;68550;-26.480;29.234;2023-07-29T06:21:51;84439.51;;;19.51;32.39
79142;BME280;68550;-26.480;29.234;2023-07-29T06:24:16;84436.25;;;19.51;32.35
79142;BME280;68550;-26.480;29.234;2023-07-29T06:26:41;84429.50;;;19.61;32.32
79142;BME280;68550;-26.480;29.234;2023-07-29T06:29:07;84426.52;;;19.65;32.28
79142;BME280;68550;-26.480;29.234;2023-07-29T06:31:33;84421.28;;;19.54;32.21
79142;BME280;68550;-26.480;29.234;2023-07-29T06:34:02;84415.57;;;19.86;32.20
79142;BME280;68550;-26.480;29.234;2023-07-29T06:36:24;84410.71;;;19.86;32.19
79142;BME280;68550;-26.480;29.234;2023-07-29T06:38:50;84409.02;;;19.84;32.21
79142;BME280;68550;-26.480;29.234;2023-07-29T06:41:15;84411.51;;;19.96;32.07
79142;BME280;68550;-26.480;29.234;2023-07-29T06:43:40;84412.29;;;19.84;32.19
79142;BME280;68550;-26.480;29.234;2023-07-29T06:46:06;84412.45;;;20.02;32.06
79142;BME280;68550;-26.480;29.234;2023-07-29T06:48:32;84412.85;;;19.77;32.08
79142;BME280;68550;-26.480;29.234;2023-07-29T06:50:57;84414.33;;;19.56;32.07
79142;BME280;68550;-26.480;29.234;2023-07-29T06:53:24;84409.75;;;20.10;31.99
79142;BME280;68550;-26.480;29.234;2023-07-29T06:55:48;84414.93;;;20.09;31.97
79142;BME280;68550;-26.480;29.234;2023-07-29T06:58:16;84413.44;;;19.89;31.94
79142;BME280;68550;-26.480;29.234;2023-07-29T07:00:40;84413.48;;;19.88;31.89
79142;BME280;68550;-26.480;29.234;2023-07-29T07:03:05;84416.53;;;20.26;31.83
79142;BME280;68550;-26.480;29.234;2023-07-29T07:05:31;84416.09;;;19.97;31.83
79142;BME280;68550;-26.480;29.234;2023-07-29T07:07:56;84416.11;;;19.95;31.75
79142;BME280;68550;-26.480;29.234;2023-07-29T07:10:23;84421.59;;;20.04;31.73
79142;BME280;68550;-26.480;29.234;2023-07-29T07:12:49;84418.53;;;19.93;31.70
79142;BME280;68550;-26.480;29.234;2023-07-29T07:15:12;84417.30;;;20.09;31.47
79142;BME280;68550;-26.480;29.234;2023-07-29T07:17:37;84412.62;;;19.78;31.49
79142;BME280;68550;-26.480;29.234;2023-07-29T07:20:02;84412.55;;;19.43;31.91
79142;BME280;68550;-26.480;29.234;2023-07-29T07:22:27;84411.27;;;20.00;31.51
79142;BME280;68550;-26.480;29.234;2023-07-29T07:24:53;84406.21;;;20.13;31.34
79142;BME280;68550;-26.480;29.234;2023-07-29T07:27:19;84402.36;;;20.11;31.38
79142;BME280;68550;-26.480;29.234;2023-07-29T07:29:44;84402.49;;;20.18;31.31
79142;BME280;68550;-26.480;29.234;2023-07-29T07:32:10;84400.64;;;20.47;31.20
79142;BME280;68550;-26.480;29.234;2023-07-29T07:34:35;84397.79;;;20.49;31.29
79142;BME280;68550;-26.480;29.234;2023-07-29T07:37:02;84396.13;;;20.35;31.20
79142;BME280;68550;-26.480;29.234;2023-07-29T07:39:27;84397.55;;;20.24;31.29
79142;BME280;68550;-26.480;29.234;2023-07-29T07:41:54;84392.60;;;20.10;31.21
79142;BME280;68550;-26.480;29.234;2023-07-29T07:44:18;84389.24;;;20.09;31.34
79142;BME280;68550;-26.480;29.234;2023-07-29T07:46:43;84392.53;;;20.00;31.18
79142;BME280;68550;-26.480;29.234;2023-07-29T07:49:09;84385.30;;;20.18;31.16
79142;BME280;68550;-26.480;29.234;2023-07-29T07:51:37;84378.27;;;20.17;30.94
79142;BME280;68550;-26.480;29.234;2023-07-29T07:54:02;84374.25;;;20.60;30.87
79142;BME280;68550;-26.480;29.234;2023-07-29T07:56:25;84367.64;;;19.92;31.01
79142;BME280;68550;-26.480;29.234;2023-07-29T07:58:50;84362.86;;;19.40;31.24
79142;BME280;68550;-26.480;29.234;2023-07-29T08:01:15;84353.43;;;19.54;31.17
79142;BME280;68550;-26.480;29.234;2023-07-29T08:03:41;84348.86;;;20.27;30.48
79142;BME280;68550;-26.480;29.234;2023-07-29T08:06:06;84337.71;;;20.09;30.70
79142;BME280;68550;-26.480;29.234;2023-07-29T08:08:32;84332.32;;;20.23;30.69
79142;BME280;68550;-26.480;29.234;2023-07-29T08:10:58;84332.38;;;20.26;30.54
79142;BME280;68550;-26.480;29.234;2023-07-29T08:13:23;84330.43;;;20.26;30.46
79142;BME280;68550;-26.480;29.234;2023-07-29T08:15:49;84320.79;;;20.33;30.43
79142;BME280;68550;-26.480;29.234;2023-07-29T08:18:13;84316.21;;;20.07;30.33
79142;BME280;68550;-26.480;29.234;2023-07-29T08:20:39;84316.04;;;20.18;30.21
79142;BME280;68550;-26.480;29.234;2023-07-29T08:25:31;84309.90;;;20.28;30.06
79142;BME280;68550;-26.480;29.234;2023-07-29T08:27:57;84299.28;;;20.37;29.98
79142;BME280;68550;-26.480;29.234;2023-07-29T08:30:21;84300.93;;;20.61;29.88
79142;BME280;68550;-26.480;29.234;2023-07-29T08:32:46;84291.68;;;20.76;29.87
79142;BME280;68550;-26.480;29.234;2023-07-29T08:35:12;84293.64;;;20.00;30.11
79142;BME280;68550;-26.480;29.234;2023-07-29T08:37:38;84291.33;;;19.07;30.70
79142;BME280;68550;-26.480;29.234;2023-07-29T08:40:05;84287.88;;;19.60;30.53
79142;BME280;68550;-26.480;29.234;2023-07-29T08:42:31;84287.79;;;19.31;30.50
79142;BME280;68550;-26.480;29.234;2023-07-29T08:44:55;84276.27;;;19.67;30.31
79142;BME280;68550;-26.480;29.234;2023-07-29T08:47:19;84277.50;;;19.97;30.15
79142;BME280;68550;-26.480;29.234;2023-07-29T09:09:26;84255.94;;;20.70;29.22
79142;BME280;68550;-26.480;29.234;2023-07-29T09:38:15;84207.16;;;20.97;28.59
79142;BME280;68550;-26.480;29.234;2023-07-29T09:40:39;84195.51;;;20.93;28.71
79142;BME280;68550;-26.480;29.234;2023-07-29T09:43:07;84193.59;;;20.57;28.85
79142;BME280;68550;-26.480;29.234;2023-07-29T09:47:57;84189.84;;;20.59;28.59
79142;BME280;68550;-26.480;29.234;2023-07-29T09:50:23;84185.20;;;20.79;28.72
79142;BME280;68550;-26.480;29.234;2023-07-29T09:52:46;84179.04;;;20.97;28.68
79142;BME280;68550;-26.480;29.234;2023-07-29T09:55:12;84178.38;;;20.78;28.67
79142;BME280;68550;-26.480;29.234;2023-07-29T09:57:39;84169.94;;;20.71;28.82
79142;BME280;68550;-26.480;29.234;2023-07-29T10:00:04;84171.27;;;20.98;28.66
79142;BME280;68550;-26.480;29.234;2023-07-29T10:02:27;84168.86;;;20.65;28.72
79142;BME280;68550;-26.480;29.234;2023-07-29T10:04:53;84165.71;;;19.34;29.88
79142;BME280;68550;-26.480;29.234;2023-07-29T10:07:19;84159.72;;;19.67;29.85
79142;BME280;68550;-26.480;29.234;2023-07-29T10:09:45;84161.12;;;19.47;29.69
79142;BME280;68550;-26.480;29.234;2023-07-29T10:12:10;84152.76;;;20.72;28.98
79142;BME280;68550;-26.480;29.234;2023-07-29T10:14:36;84150.70;;;20.74;28.95
79142;BME280;68550;-26.480;29.234;2023-07-29T10:17:00;84140.97;;;20.78;28.89
79142;BME280;68550;-26.480;29.234;2023-07-29T10:19:26;84140.55;;;20.87;28.82
79142;BME280;68550;-26.480;29.234;2023-07-29T10:21:51;84134.95;;;20.42;28.86
79142;BME280;68550;-26.480;29.234;2023-07-29T10:24:24;84129.69;;;20.89;28.80
79142;BME280;68550;-26.480;29.234;2023-07-29T10:26:42;84125.23;;;20.70;28.70
79142;BME280;68550;-26.480;29.234;2023-07-29T10:29:08;84118.15;;;20.77;28.64
79142;BME280;68550;-26.480;29.234;2023-07-29T10:31:34;84109.61;;;20.66;28.73
79142;BME280;68550;-26.480;29.234;2023-07-29T10:33:58;84103.82;;;20.85;28.74
79142;BME280;68550;-26.480;29.234;2023-07-29T10:36:25;84101.73;;;20.78;28.78
79142;BME280;68550;-26.480;29.234;2023-07-29T10:38:50;84101.17;;;20.37;28.77
79142;BME280;68550;-26.480;29.234;2023-07-29T10:41:15;84100.34;;;20.86;28.68
79142;BME280;68550;-26.480;29.234;2023-07-29T10:43:40;84091.88;;;20.73;28.53
79142;BME280;68550;-26.480;29.234;2023-07-29T10:46:15;84081.19;;;21.05;28.18
79142;BME280;68550;-26.480;29.234;2023-07-29T10:48:41;84078.41;;;20.84;28.71
79142;BME280;68550;-26.480;29.234;2023-07-29T10:53:29;84073.10;;;20.80;28.71
79142;BME280;68550;-26.480;29.234;2023-07-29T10:55:46;84069.32;;;20.86;28.58
79142;BME280;68550;-26.480;29.234;2023-07-29T10:58:15;84071.72;;;20.88;28.64
79142;BME280;68550;-26.480;29.234;2023-07-29T11:00:41;84071.17;;;21.07;28.62
79142;BME280;68550;-26.480;29.234;2023-07-29T11:19:43;84054.49;;;20.58;28.70
79142;BME280;68550;-26.480;29.234;2023-07-29T11:21:52;84054.31;;;20.78;28.54
79142;BME280;68550;-26.480;29.234;2023-07-29T11:24:19;84045.15;;;20.91;28.32
79142;BME280;68550;-26.480;29.234;2023-07-29T11:26:47;84041.53;;;21.00;28.25
79142;BME280;68550;-26.480;29.234;2023-07-29T12:03:04;84001.61;;;20.87;28.16
79142;BME280;68550;-26.480;29.234;2023-07-29T12:05:32;84000.78;;;21.11;28.16
79142;BME280;68550;-26.480;29.234;2023-07-29T12:07:56;84003.84;;;21.28;28.27
79142;BME280;68550;-26.480;29.234;2023-07-29T12:12:48;83997.20;;;20.75;28.17
79142;BME280;68550;-26.480;29.234;2023-07-29T12:15:12;83995.83;;;21.11;28.10
79142;BME280;68550;-26.480;29.234;2023-07-29T12:37:03;83990.71;;;20.86;28.17
79142;BME280;68550;-26.480;29.234;2023-07-29T12:39:28;84002.46;;;20.81;28.22
79142;BME280;68550;-26.480;29.234;2023-07-29T12:46:43;84004.91;;;20.72;28.36
79142;BME280;68550;-26.480;29.234;2023-07-29T12:51:34;84001.95;;;20.65;28.51
79142;BME280;68550;-26.480;29.234;2023-07-29T12:54:01;83995.24;;;20.98;28.44
79142;BME280;68550;-26.480;29.234;2023-07-29T13:01:16;83991.00;;;20.40;28.73
79142;BME280;68550;-26.480;29.234;2023-07-29T13:04:29;83984.78;;;20.58;28.93
79142;BME280;68550;-26.480;29.234;2023-07-29T13:06:56;83982.46;;;20.85;28.75
79142;BME280;68550;-26.480;29.234;2023-07-29T13:09:21;83975.68;;;20.83;28.55
79142;BME280;68550;-26.480;29.234;2023-07-29T13:11:46;83972.66;;;20.64;28.55
79142;BME280;68550;-26.480;29.234;2023-07-29T13:14:11;83971.70;;;20.61;28.59
79142;BME280;68550;-26.480;29.234;2023-07-29T13:16:37;83969.01;;;20.84;28.80
79142;BME280;68550;-26.480;29.234;2023-07-29T13:19:03;83964.91;;;20.87;28.72
79142;BME280;68550;-26.480;29.234;2023-07-29T13:21:28;83955.72;;;20.73;28.77
79142;BME280;68550;-26.480;29.234;2023-07-29T13:23:53;83953.67;;;21.09;28.70
79142;BME280;68550;-26.480;29.234;2023-07-29T13:26:19;83950.68;;;20.88;28.64
79142;BME280;68550;-26.480;29.234;2023-07-29T13:28:44;83950.86;;;20.84;28.84
79142;BME280;68550;-26.480;29.234;2023-07-29T13:31:11;83941.64;;;20.83;28.90
79142;BME280;68550;-26.480;29.234;2023-07-29T13:33:34;83944.94;;;21.03;28.87
79142;BME280;68550;-26.480;29.234;2023-07-29T13:36:00;83945.24;;;20.90;28.71
79142;BME280;68550;-26.480;29.234;2023-07-29T13:38:26;83936.56;;;20.95;28.78
79142;BME280;68550;-26.480;29.234;2023-07-29T13:40:51;83936.61;;;21.13;28.88
79142;BME280;68550;-26.480;29.234;2023-07-29T13:43:18;83943.26;;;18.86;28.53
79142;BME280;68550;-26.480;29.234;2023-07-29T13:45:42;83938.55;;;19.15;28.25
79142;BME280;68550;-26.480;29.234;2023-07-29T13:48:08;83938.97;;;18.75;28.31
79142;BME280;68550;-26.480;29.234;2023-07-29T13:50:32;83930.14;;;19.53;28.72
79142;BME280;68550;-26.480;29.234;2023-07-29T13:52:58;83931.21;;;20.28;28.70
79142;BME280;68550;-26.480;29.234;2023-07-29T13:55:24;83932.67;;;20.56;29.26
79142;BME280;68550;-26.480;29.234;2023-07-29T13:57:49;83931.25;;;21.06;29.39
79142;BME280;68550;-26.480;29.234;2023-07-29T14:00:14;83931.06;;;21.23;29.49
79142;BME280;68550;-26.480;29.234;2023-07-29T14:02:40;83928.83;;;21.22;29.67
79142;BME280;68550;-26.480;29.234;2023-07-29T14:05:05;83928.95;;;21.36;29.58
79142;BME280;68550;-26.480;29.234;2023-07-29T14:07:32;83929.24;;;20.83;29.70
79142;BME280;68550;-26.480;29.234;2023-07-29T14:09:56;83927.11;;;20.95;29.65
79142;BME280;68550;-26.480;29.234;2023-07-29T14:12:21;83928.89;;;21.17;29.66
79142;BME280;68550;-26.480;29.234;2023-07-29T14:14:46;83926.33;;;21.21;29.56
79142;BME280;68550;-26.480;29.234;2023-07-29T14:17:13;83923.44;;;21.07;29.57
79142;BME280;68550;-26.480;29.234;2023-07-29T14:19:38;83923.56;;;21.01;29.61
79142;BME280;68550;-26.480;29.234;2023-07-29T14:22:01;83921.06;;;21.34;29.48
79142;BME280;68550;-26.480;29.234;2023-07-29T14:24:27;83919.79;;;21.06;29.61
79142;BME280;68550;-26.480;29.234;2023-07-29T14:26:52;83919.01;;;21.13;29.61
79142;BME280;68550;-26.480;29.234;2023-07-29T14:29:19;83917.32;;;21.15;29.68
79142;BME280;68550;-26.480;29.234;2023-07-29T14:31:44;83917.80;;;21.20;29.75
79142;BME280;68550;-26.480;29.234;2023-07-29T14:34:10;83915.30;;;21.48;29.76
79142;BME280;68550;-26.480;29.234;2023-07-29T14:36:35;83911.19;;;21.10;29.82
79142;BME280;68550;-26.480;29.234;2023-07-29T14:39:00;83910.15;;;20.51;30.27
79142;BME280;68550;-26.480;29.234;2023-07-29T14:41:26;83907.84;;;20.96;29.87
79142;BME280;68550;-26.480;29.234;2023-07-29T14:43:55;83906.00;;;19.91;31.00
79142;BME280;68550;-26.480;29.234;2023-07-29T14:46:16;83908.10;;;20.85;30.34
79142;BME280;68550;-26.480;29.234;2023-07-29T14:48:42;83910.69;;;19.65;31.18
79142;BME280;68550;-26.480;29.234;2023-07-29T14:51:08;83909.29;;;20.36;30.99
79142;BME280;68550;-26.480;29.234;2023-07-29T14:53:33;83908.13;;;20.85;30.34
79142;BME280;68550;-26.480;29.234;2023-07-29T14:55:59;83908.62;;;20.96;30.22
79142;BME280;68550;-26.480;29.234;2023-07-29T14:58:24;83905.61;;;21.18;29.75
79142;BME280;68550;-26.480;29.234;2023-07-29T15:00:50;83902.47;;;20.85;30.03
79142;BME280;68550;-26.480;29.234;2023-07-29T15:03:16;83902.30;;;20.98;29.82
79142;BME280;68550;-26.480;29.234;2023-07-29T15:05:41;83902.63;;;20.84;30.28
79142;BME280;68550;-26.480;29.234;2023-07-29T15:08:07;83904.07;;;20.19;31.20
79142;BME280;68550;-26.480;29.234;2023-07-29T15:10:33;83902.99;;;20.93;30.63
79142;BME280;68550;-26.480;29.234;2023-07-29T15:12:58;83905.74;;;21.01;30.83
79142;BME280;68550;-26.480;29.234;2023-07-29T15:15:24;83905.44;;;20.76;30.74
79142;BME280;68550;-26.480;29.234;2023-07-29T15:17:49;83911.10;;;21.11;30.23
79142;BME280;68550;-26.480;29.234;2023-07-29T15:20:16;83913.22;;;21.10;30.32
79142;BME280;68550;-26.480;29.234;2023-07-29T15:22:40;83913.99;;;21.30;30.25
79142;BME280;68550;-26.480;29.234;2023-07-29T15:29:56;83921.78;;;21.11;30.15
79142;BME280;68550;-26.480;29.234;2023-07-29T15:32:21;83924.11;;;21.11;30.03
79142;BME280;68550;-26.480;29.234;2023-07-29T15:34:48;83927.95;;;21.11;30.12
79142;BME280;68550;-26.480;29.234;2023-07-29T16:06:19;83947.19;;;21.24;30.42
79142;BME280;68550;-26.480;29.234;2023-07-29T16:16:01;83933.65;;;21.19;32.12